sensor_id;sensor_type;location;lat;lon;timestamp;pressure;altitude;pressure_sealevel;temperature;humidity
11223;BME280;5668;52.012;8.724;2023-06-22T00:02:27;100493.34;;;23.37;70.01
11223;BME280;5668;52.012;8.724;2023-06-22T00:04:54;100486.00;;;23.39;69.11
11223;BME280;5668;52.012;8.724;2023-06-22T00:07:21;100485.00;;;23.40;68.87
11223;BME280;5668;52.012;8.724;2023-06-22T00:09:48;100483.34;;;23.39;69.29
11223;BME280;5668;52.012;8.724;2023-06-22T00:12:15;100482.84;;;23.29;70.57
11223;BME280;5668;52.012;8.724;2023-06-22T00:14:44;100485.19;;;23.24;70.59
11223;BME280;5668;52.012;8.724;2023-06-22T00:17:11;100486.84;;;23.25;70.35
11223;BME280;5668;52.012;8.724;2023-06-22T00:19:38;100487.84;;;23.24;70.01
11223;BME280;5668;52.012;8.724;2023-06-22T00:22:06;100475.16;;;23.20;70.45
11223;BME280;5668;52.012;8.724;2023-06-22T00:24:33;100473.16;;;23.07;71.08
11223;BME280;5668;52.012;8.724;2023-06-22T00:27:00;100469.03;;;23.04;71.69
11223;BME280;5668;52.012;8.724;2023-06-22T00:29:28;100473.16;;;23.07;71.73
11223;BME280;5668;52.012;8.724;2023-06-22T00:31:56;100466.66;;;23.09;70.94
11223;BME280;5668;52.012;8.724;2023-06-22T00:34:23;100463.47;;;22.99;71.55
11223;BME280;5668;52.012;8.724;2023-06-22T00:36:50;100468.88;;;22.91;72.04
11223;BME280;5668;52.012;8.724;2023-06-22T00:39:18;100467.41;;;22.89;71.98
11223;BME280;5668;52.012;8.724;2023-06-22T00:41:45;100466.75;;;22.87;72.48
11223;BME280;5668;52.012;8.724;2023-06-22T00:44:12;100465.75;;;22.88;72.60
11223;BME280;5668;52.012;8.724;2023-06-22T00:46:39;100460.75;;;22.93;72.15
11223;BME280;5668;52.012;8.724;2023-06-22T00:49:08;100463.00;;;22.96;71.68
11223;BME280;5668;52.012;8.724;2023-06-22T00:51:35;100456.16;;;22.87;71.47
11223;BME280;5668;52.012;8.724;2023-06-22T00:54:05;100449.94;;;22.80;73.39
11223;BME280;5668;52.012;8.724;2023-06-22T00:56:32;100442.63;;;22.82;73.14
11223;BME280;5668;52.012;8.724;2023-06-22T00:59:03;100433.28;;;22.86;72.48
11223;BME280;5668;52.012;8.724;2023-06-22T01:01:30;100439.25;;;22.88;71.81
11223;BME280;5668;52.012;8.724;2023-06-22T01:03:58;100449.19;;;22.86;71.79
11223;BME280;5668;52.012;8.724;2023-06-22T01:06:33;100450.03;;;22.86;72.05
11223;BME280;5668;52.012;8.724;2023-06-22T01:09:08;100444.94;;;22.85;72.72
11223;BME280;5668;52.012;8.724;2023-06-22T01:11:45;100439.16;;;22.81;73.44
11223;BME280;5668;52.012;8.724;2023-06-22T01:14:16;100432.78;;;22.75;73.86
11223;BME280;5668;52.012;8.724;2023-06-22T01:16:45;100434.09;;;22.71;73.91
11223;BME280;5668;52.012;8.724;2023-06-22T01:19:27;100444.69;;;22.71;74.09
11223;BME280;5668;52.012;8.724;2023-06-22T01:21:59;100434.91;;;22.72;74.03
11223;BME280;5668;52.012;8.724;2023-06-22T01:24:32;100432.13;;;22.73;73.36
11223;BME280;5668;52.012;8.724;2023-06-22T01:27:09;100432.78;;;22.75;72.91
11223;BME280;5668;52.012;8.724;2023-06-22T01:29:42;100441.72;;;22.74;73.43
11223;BME280;5668;52.012;8.724;2023-06-22T01:32:10;100438.72;;;22.77;73.25
11223;BME280;5668;52.012;8.724;2023-06-22T01:34:38;100444.63;;;22.80;72.90
11223;BME280;5668;52.012;8.724;2023-06-22T01:37:07;100449.94;;;22.80;72.64
11223;BME280;5668;52.012;8.724;2023-06-22T01:39:36;100456.63;;;22.75;72.50
11223;BME280;5668;52.012;8.724;2023-06-22T01:42:04;100457.63;;;22.74;73.61
11223;BME280;5668;52.012;8.724;2023-06-22T01:44:32;100455.78;;;22.75;73.30
11223;BME280;5668;52.012;8.724;2023-06-22T01:47:02;100446.84;;;22.76;73.21
11223;BME280;5668;52.012;8.724;2023-06-22T01:49:30;100442.38;;;22.76;73.43
11223;BME280;5668;52.012;8.724;2023-06-22T01:51:57;100435.25;;;22.77;73.40
11223;BME280;5668;52.012;8.724;2023-06-22T01:54:25;100438.06;;;22.75;73.34
11223;BME280;5668;52.012;8.724;2023-06-22T01:56:52;100441.53;;;22.76;73.70
11223;BME280;5668;52.012;8.724;2023-06-22T01:59:25;100440.91;;;22.74;73.54
11223;BME280;5668;52.012;8.724;2023-06-22T02:02:04;100440.41;;;22.70;73.70
11223;BME280;5668;52.012;8.724;2023-06-22T02:04:36;100435.47;;;22.67;74.34
11223;BME280;5668;52.012;8.724;2023-06-22T02:07:09;100441.13;;;22.64;74.18
11223;BME280;5668;52.012;8.724;2023-06-22T02:09:39;100440.69;;;22.61;74.42
11223;BME280;5668;52.012;8.724;2023-06-22T02:12:09;100445.16;;;22.60;74.24
11223;BME280;5668;52.012;8.724;2023-06-22T02:14:38;100446.81;;;22.61;73.87
11223;BME280;5668;52.012;8.724;2023-06-22T02:17:08;100446.81;;;22.61;74.26
11223;BME280;5668;52.012;8.724;2023-06-22T02:19:36;100452.09;;;22.61;74.03
11223;BME280;5668;52.012;8.724;2023-06-22T02:22:04;100449.47;;;22.61;74.08
11223;BME280;5668;52.012;8.724;2023-06-22T02:24:31;100448.63;;;22.61;74.20
11223;BME280;5668;52.012;8.724;2023-06-22T02:26:59;100454.09;;;22.59;73.93
11223;BME280;5668;52.012;8.724;2023-06-22T02:29:27;100455.09;;;22.58;74.45
11223;BME280;5668;52.012;8.724;2023-06-22T02:31:54;100462.22;;;22.58;74.07
11223;BME280;5668;52.012;8.724;2023-06-22T02:34:23;100452.00;;;22.55;74.03
11223;BME280;5668;52.012;8.724;2023-06-22T02:36:50;100456.50;;;22.54;74.37
11223;BME280;5668;52.012;8.724;2023-06-22T02:39:19;100457.50;;;22.53;74.49
11223;BME280;5668;52.012;8.724;2023-06-22T02:41:48;100471.81;;;22.44;74.57
11223;BME280;5668;52.012;8.724;2023-06-22T02:44:15;100467.22;;;22.38;75.51
11223;BME280;5668;52.012;8.724;2023-06-22T02:46:42;100464.84;;;22.43;75.91
11223;BME280;5668;52.012;8.724;2023-06-22T02:49:10;100463.03;;;22.44;75.62
11223;BME280;5668;52.012;8.724;2023-06-22T02:51:42;100455.09;;;22.44;75.66
11223;BME280;5668;52.012;8.724;2023-06-22T02:54:09;100466.50;;;22.44;75.06
11223;BME280;5668;52.012;8.724;2023-06-22T02:56:36;100465.69;;;22.44;74.83
11223;BME280;5668;52.012;8.724;2023-06-22T02:59:04;100466.50;;;22.44;74.40
11223;BME280;5668;52.012;8.724;2023-06-22T03:01:31;100466.50;;;22.44;74.86
11223;BME280;5668;52.012;8.724;2023-06-22T03:04:03;100471.63;;;22.46;74.41
11223;BME280;5668;52.012;8.724;2023-06-22T03:06:31;100466.16;;;22.47;74.60
11223;BME280;5668;52.012;8.724;2023-06-22T03:09:01;100460.03;;;22.47;74.61
11223;BME280;5668;52.012;8.724;2023-06-22T03:11:30;100470.63;;;22.47;74.75
11223;BME280;5668;52.012;8.724;2023-06-22T03:13:58;100457.09;;;22.42;75.39
11223;BME280;5668;52.012;8.724;2023-06-22T03:16:25;100448.88;;;22.36;76.33
11223;BME280;5668;52.012;8.724;2023-06-22T03:18:52;100455.34;;;22.34;76.35
11223;BME280;5668;52.012;8.724;2023-06-22T03:21:21;100454.72;;;22.32;76.71
11223;BME280;5668;52.012;8.724;2023-06-22T03:23:48;100453.88;;;22.31;76.92
11223;BME280;5668;52.012;8.724;2023-06-22T03:26:18;100451.69;;;22.35;77.17
11223;BME280;5668;52.012;8.724;2023-06-22T03:28:46;100450.34;;;22.39;76.82
11223;BME280;5668;52.012;8.724;2023-06-22T03:31:13;100447.69;;;22.39;76.67
11223;BME280;5668;52.012;8.724;2023-06-22T03:33:40;100444.06;;;22.40;76.36
11223;BME280;5668;52.012;8.724;2023-06-22T03:36:08;100443.66;;;22.43;76.07
11223;BME280;5668;52.012;8.724;2023-06-22T03:38:35;100436.72;;;22.42;75.71
11223;BME280;5668;52.012;8.724;2023-06-22T03:41:02;100442.03;;;22.42;75.97
11223;BME280;5668;52.012;8.724;2023-06-22T03:43:31;100452.63;;;22.42;76.06
11223;BME280;5668;52.012;8.724;2023-06-22T03:45:58;100459.56;;;22.43;75.94
11223;BME280;5668;52.012;8.724;2023-06-22T03:48:26;100450.63;;;22.44;75.52
11223;BME280;5668;52.012;8.724;2023-06-22T03:50:53;100457.75;;;22.44;75.17
11223;BME280;5668;52.012;8.724;2023-06-22T03:53:20;100463.84;;;22.44;75.46
11223;BME280;5668;52.012;8.724;2023-06-22T03:55:51;100459.56;;;22.43;75.75
11223;BME280;5668;52.012;8.724;2023-06-22T03:58:19;100455.91;;;22.44;75.06
11223;BME280;5668;52.012;8.724;2023-06-22T04:00:48;100444.66;;;22.42;75.53
11223;BME280;5668;52.012;8.724;2023-06-22T04:03:19;100446.69;;;22.40;76.19
11223;BME280;5668;52.012;8.724;2023-06-22T04:05:49;100452.34;;;22.37;76.99
11223;BME280;5668;52.012;8.724;2023-06-22T04:08:17;100444.75;;;22.34;77.26
11223;BME280;5668;52.012;8.724;2023-06-22T04:10:44;100442.66;;;22.29;76.47
11223;BME280;5668;52.012;8.724;2023-06-22T04:13:15;100442.81;;;22.28;76.84
11223;BME280;5668;52.012;8.724;2023-06-22T04:15:42;100447.13;;;22.29;76.87
11223;BME280;5668;52.012;8.724;2023-06-22T04:18:11;100445.47;;;22.28;76.79
11223;BME280;5668;52.012;8.724;2023-06-22T04:20:39;100449.59;;;22.30;76.64
11223;BME280;5668;52.012;8.724;2023-06-22T04:23:06;100455.72;;;22.31;76.52
11223;BME280;5668;52.012;8.724;2023-06-22T04:25:34;100463.66;;;22.31;77.03
11223;BME280;5668;52.012;8.724;2023-06-22T04:28:01;100465.81;;;22.27;77.36
11223;BME280;5668;52.012;8.724;2023-06-22T04:30:32;100458.88;;;22.26;76.97
11223;BME280;5668;52.012;8.724;2023-06-22T04:32:59;100459.72;;;22.27;76.92
11223;BME280;5668;52.012;8.724;2023-06-22T04:35:28;100454.41;;;22.27;76.81
11223;BME280;5668;52.012;8.724;2023-06-22T04:38:00;100455.41;;;22.26;76.90
11223;BME280;5668;52.012;8.724;2023-06-22T04:40:27;100455.78;;;22.23;77.42
11223;BME280;5668;52.012;8.724;2023-06-22T04:42:54;100457.50;;;22.16;78.02
11223;BME280;5668;52.012;8.724;2023-06-22T04:45:21;100457.28;;;22.03;78.76
11223;BME280;5668;52.012;8.724;2023-06-22T04:47:49;100454.91;;;22.08;79.02
11223;BME280;5668;52.012;8.724;2023-06-22T04:50:19;100447.63;;;22.10;78.85
11223;BME280;5668;52.012;8.724;2023-06-22T04:52:49;100447.25;;;22.13;78.77
11223;BME280;5668;52.012;8.724;2023-06-22T04:55:18;100449.56;;;22.16;78.39
11223;BME280;5668;52.012;8.724;2023-06-22T04:57:45;100438.59;;;22.19;77.65
11223;BME280;5668;52.012;8.724;2023-06-22T05:00:15;100435.94;;;22.19;77.67
11223;BME280;5668;52.012;8.724;2023-06-22T05:02:44;100440.91;;;22.22;77.67
11223;BME280;5668;52.012;8.724;2023-06-22T05:05:12;100443.38;;;22.23;77.90
11223;BME280;5668;52.012;8.724;2023-06-22T05:07:41;100428.31;;;22.24;77.72
11223;BME280;5668;52.012;8.724;2023-06-22T05:10:12;100439.72;;;22.24;78.94
11223;BME280;5668;52.012;8.724;2023-06-22T05:12:40;100440.53;;;22.25;79.20
11223;BME280;5668;52.012;8.724;2023-06-22T05:15:08;100438.53;;;22.27;79.23
11223;BME280;5668;52.012;8.724;2023-06-22T05:17:36;100432.88;;;22.30;79.81
11223;BME280;5668;52.012;8.724;2023-06-22T05:22:36;100439.09;;;22.37;80.03
11223;BME280;5668;52.012;8.724;2023-06-22T05:25:04;100440.38;;;22.41;80.34
11223;BME280;5668;52.012;8.724;2023-06-22T05:27:33;100439.53;;;22.40;81.51
11223;BME280;5668;52.012;8.724;2023-06-22T05:30:06;100438.03;;;22.46;81.14
11223;BME280;5668;52.012;8.724;2023-06-22T05:32:33;100433.34;;;22.48;81.42
11223;BME280;5668;52.012;8.724;2023-06-22T05:35:01;100430.16;;;22.53;81.77
11223;BME280;5668;52.012;8.724;2023-06-22T05:37:29;100429.00;;;22.55;81.92
11223;BME280;5668;52.012;8.724;2023-06-22T05:39:56;100424.13;;;22.59;81.60
11223;BME280;5668;52.012;8.724;2023-06-22T05:42:24;100422.31;;;22.59;81.83
11223;BME280;5668;52.012;8.724;2023-06-22T05:44:53;100424.22;;;22.65;81.64
11223;BME280;5668;52.012;8.724;2023-06-22T05:47:21;100426.53;;;22.68;81.76
11223;BME280;5668;52.012;8.724;2023-06-22T05:49:48;100427.78;;;22.72;81.66
11223;BME280;5668;52.012;8.724;2023-06-22T05:52:16;100424.31;;;22.72;81.91
11223;BME280;5668;52.012;8.724;2023-06-22T05:54:43;100425.00;;;22.74;82.37
11223;BME280;5668;52.012;8.724;2023-06-22T05:57:10;100434.22;;;22.78;82.75
11223;BME280;5668;52.012;8.724;2023-06-22T05:59:38;100432.69;;;22.84;82.87
11223;BME280;5668;52.012;8.724;2023-06-22T06:02:06;100440.63;;;22.84;81.98
11223;BME280;5668;52.012;8.724;2023-06-22T06:04:33;100433.28;;;22.86;82.75
11223;BME280;5668;52.012;8.724;2023-06-22T06:07:01;100440.31;;;22.93;82.88
11223;BME280;5668;52.012;8.724;2023-06-22T06:09:28;100442.06;;;23.01;83.03
11223;BME280;5668;52.012;8.724;2023-06-22T06:11:56;100439.31;;;23.09;82.85
11223;BME280;5668;52.012;8.724;2023-06-22T06:14:23;100435.28;;;23.13;83.27
11223;BME280;5668;52.012;8.724;2023-06-22T06:16:50;100445.50;;;23.16;83.40
11223;BME280;5668;52.012;8.724;2023-06-22T06:19:19;100439.50;;;23.22;82.69
11223;BME280;5668;52.012;8.724;2023-06-22T06:21:46;100427.50;;;23.26;82.35
11223;BME280;5668;52.012;8.724;2023-06-22T06:24:13;100435.44;;;23.26;81.82
11223;BME280;5668;52.012;8.724;2023-06-22T06:26:40;100431.78;;;23.27;82.18
11223;BME280;5668;52.012;8.724;2023-06-22T06:29:07;100434.34;;;23.35;82.45
11223;BME280;5668;52.012;8.724;2023-06-22T06:31:35;100440.53;;;23.42;82.01
11223;BME280;5668;52.012;8.724;2023-06-22T06:34:02;100436.50;;;23.46;82.44
11223;BME280;5668;52.012;8.724;2023-06-22T06:36:30;100443.09;;;23.50;82.43
11223;BME280;5668;52.012;8.724;2023-06-22T06:38:57;100440.69;;;23.56;81.75
11223;BME280;5668;52.012;8.724;2023-06-22T06:41:25;100431.81;;;23.63;81.58
11223;BME280;5668;52.012;8.724;2023-06-22T06:43:52;100434.69;;;23.68;80.63
11223;BME280;5668;52.012;8.724;2023-06-22T06:46:19;100434.78;;;23.75;80.69
11223;BME280;5668;52.012;8.724;2023-06-22T06:48:46;100442.34;;;23.78;80.18
11223;BME280;5668;52.012;8.724;2023-06-22T06:51:14;100431.56;;;23.79;80.67
11223;BME280;5668;52.012;8.724;2023-06-22T06:53:42;100424.66;;;23.85;80.79
11223;BME280;5668;52.012;8.724;2023-06-22T06:56:09;100425.94;;;23.89;80.64
11223;BME280;5668;52.012;8.724;2023-06-22T06:58:38;100418.59;;;23.91;80.98
11223;BME280;5668;52.012;8.724;2023-06-22T07:01:05;100427.19;;;23.93;81.66
11223;BME280;5668;52.012;8.724;2023-06-22T07:03:32;100431.72;;;23.99;81.76
11223;BME280;5668;52.012;8.724;2023-06-22T07:06:00;100438.94;;;24.05;81.33
11223;BME280;5668;52.012;8.724;2023-06-22T07:08:27;100438.56;;;24.08;80.87
11223;BME280;5668;52.012;8.724;2023-06-22T07:10:56;100427.56;;;24.11;79.97
11223;BME280;5668;52.012;8.724;2023-06-22T07:13:23;100424.50;;;24.14;80.39
11223;BME280;5668;52.012;8.724;2023-06-22T07:15:50;100431.91;;;24.19;80.26
11223;BME280;5668;52.012;8.724;2023-06-22T07:18:17;100432.72;;;24.19;80.12
11223;BME280;5668;52.012;8.724;2023-06-22T07:20:44;100426.44;;;24.20;79.97
11223;BME280;5668;52.012;8.724;2023-06-22T07:23:12;100428.69;;;24.23;78.96
11223;BME280;5668;52.012;8.724;2023-06-22T07:25:39;100433.00;;;24.24;77.78
11223;BME280;5668;52.012;8.724;2023-06-22T07:28:09;100425.41;;;24.21;78.49
11223;BME280;5668;52.012;8.724;2023-06-22T07:30:37;100420.34;;;24.26;78.16
11223;BME280;5668;52.012;8.724;2023-06-22T07:33:04;100416.69;;;24.27;78.26
11223;BME280;5668;52.012;8.724;2023-06-22T07:35:34;100420.97;;;24.28;77.97
11223;BME280;5668;52.012;8.724;2023-06-22T07:38:01;100425.91;;;24.32;78.52
11223;BME280;5668;52.012;8.724;2023-06-22T07:40:29;100426.28;;;24.28;78.14
11223;BME280;5668;52.012;8.724;2023-06-22T07:42:56;100418.72;;;24.25;78.66
11223;BME280;5668;52.012;8.724;2023-06-22T07:45:25;100415.22;;;24.25;78.87
11223;BME280;5668;52.012;8.724;2023-06-22T07:47:52;100418.72;;;24.25;78.43
11223;BME280;5668;52.012;8.724;2023-06-22T07:50:20;100417.66;;;24.20;78.30
11223;BME280;5668;52.012;8.724;2023-06-22T07:52:47;100422.38;;;24.24;79.34
11223;BME280;5668;52.012;8.724;2023-06-22T07:55:15;100422.00;;;24.27;78.63
11223;BME280;5668;52.012;8.724;2023-06-22T07:57:42;100413.19;;;24.27;78.72
11223;BME280;5668;52.012;8.724;2023-06-22T08:00:10;100414.63;;;24.29;79.21
11223;BME280;5668;52.012;8.724;2023-06-22T08:02:41;100413.25;;;24.34;79.26
11223;BME280;5668;52.012;8.724;2023-06-22T08:05:09;100411.22;;;24.36;79.31
11223;BME280;5668;52.012;8.724;2023-06-22T08:07:37;100405.91;;;24.36;79.25
11223;BME280;5668;52.012;8.724;2023-06-22T08:10:06;100406.50;;;24.38;79.11
11223;BME280;5668;52.012;8.724;2023-06-22T08:12:35;100407.16;;;24.40;79.27
11223;BME280;5668;52.012;8.724;2023-06-22T08:15:03;100402.66;;;24.40;80.24
11223;BME280;5668;52.012;8.724;2023-06-22T08:17:30;100401.00;;;24.39;80.29
11223;BME280;5668;52.012;8.724;2023-06-22T08:19:59;100405.50;;;24.39;80.95
11223;BME280;5668;52.012;8.724;2023-06-22T08:22:26;100402.84;;;24.39;80.80
11223;BME280;5668;52.012;8.724;2023-06-22T08:24:53;100406.50;;;24.38;80.93
11223;BME280;5668;52.012;8.724;2023-06-22T08:27:21;100407.16;;;24.40;81.11
11223;BME280;5668;52.012;8.724;2023-06-22T08:29:49;100405.31;;;24.40;81.07
11223;BME280;5668;52.012;8.724;2023-06-22T08:32:17;100407.78;;;24.42;81.51
11223;BME280;5668;52.012;8.724;2023-06-22T08:34:44;100403.91;;;24.44;82.06
11223;BME280;5668;52.012;8.724;2023-06-22T08:37:13;100384.09;;;24.47;81.50
11223;BME280;5668;52.012;8.724;2023-06-22T08:39:40;100376.34;;;24.52;82.22
11223;BME280;5668;52.012;8.724;2023-06-22T08:42:08;100369.44;;;24.57;82.95
11223;BME280;5668;52.012;8.724;2023-06-22T08:44:35;100357.84;;;24.65;84.19
11223;BME280;5668;52.012;8.724;2023-06-22T08:47:02;100360.72;;;24.70;84.51
11223;BME280;5668;52.012;8.724;2023-06-22T08:49:29;100368.53;;;24.78;84.73
11223;BME280;5668;52.012;8.724;2023-06-22T08:51:56;100365.25;;;24.83;84.26
11223;BME280;5668;52.012;8.724;2023-06-22T08:54:25;100364.09;;;24.92;84.29
11223;BME280;5668;52.012;8.724;2023-06-22T08:56:52;100359.81;;;24.97;84.37
11223;BME280;5668;52.012;8.724;2023-06-22T08:59:19;100355.16;;;25.06;84.75
11223;BME280;5668;52.012;8.724;2023-06-22T09:01:47;100362.75;;;25.09;84.08
11223;BME280;5668;52.012;8.724;2023-06-22T09:04:15;100362.94;;;25.14;83.18
11223;BME280;5668;52.012;8.724;2023-06-22T09:06:42;100360.50;;;25.19;81.93
11223;BME280;5668;52.012;8.724;2023-06-22T09:09:13;100358.25;;;25.23;81.35
11223;BME280;5668;52.012;8.724;2023-06-22T09:11:41;100349.28;;;25.24;80.69
11223;BME280;5668;52.012;8.724;2023-06-22T09:14:09;100334.94;;;25.25;80.09
11223;BME280;5668;52.012;8.724;2023-06-22T09:16:36;100330.22;;;25.27;79.42
11223;BME280;5668;52.012;8.724;2023-06-22T09:19:03;100330.44;;;25.32;79.80
11223;BME280;5668;52.012;8.724;2023-06-22T09:21:31;100325.72;;;25.34;80.09
11223;BME280;5668;52.012;8.724;2023-06-22T09:23:58;100326.97;;;25.38;80.29
11223;BME280;5668;52.012;8.724;2023-06-22T09:26:25;100326.59;;;25.41;80.82
11223;BME280;5668;52.012;8.724;2023-06-22T09:28:54;100327.81;;;25.45;80.62
11223;BME280;5668;52.012;8.724;2023-06-22T09:31:21;100331.09;;;25.47;80.57
11223;BME280;5668;52.012;8.724;2023-06-22T09:33:52;100347.88;;;25.48;80.42
11223;BME280;5668;52.012;8.724;2023-06-22T09:36:20;100341.72;;;25.47;80.01
11223;BME280;5668;52.012;8.724;2023-06-22T09:38:47;100341.31;;;25.50;79.94
11223;BME280;5668;52.012;8.724;2023-06-22T09:41:14;100342.56;;;25.54;79.46
11223;BME280;5668;52.012;8.724;2023-06-22T09:43:42;100331.47;;;25.57;79.83
11223;BME280;5668;52.012;8.724;2023-06-22T09:46:11;100332.75;;;25.61;79.65
11223;BME280;5668;52.012;8.724;2023-06-22T09:48:38;100323.31;;;25.65;79.80
11223;BME280;5668;52.012;8.724;2023-06-22T09:51:05;100321.91;;;25.69;79.67
11223;BME280;5668;52.012;8.724;2023-06-22T09:53:32;100319.63;;;25.73;79.18
11223;BME280;5668;52.012;8.724;2023-06-22T09:56:00;100315.13;;;25.73;78.87
11223;BME280;5668;52.012;8.724;2023-06-22T09:58:27;100316.78;;;25.74;78.92
11223;BME280;5668;52.012;8.724;2023-06-22T10:00:55;100313.28;;;25.74;79.28
11223;BME280;5668;52.012;8.724;2023-06-22T10:03:23;100303.06;;;25.77;79.52
11223;BME280;5668;52.012;8.724;2023-06-22T10:05:50;100297.09;;;25.82;80.00
11223;BME280;5668;52.012;8.724;2023-06-22T10:08:17;100298.34;;;25.86;80.01
11223;BME280;5668;52.012;8.724;2023-06-22T10:10:45;100299.34;;;25.92;80.63
11223;BME280;5668;52.012;8.724;2023-06-22T10:13:12;100301.38;;;26.03;80.82
11223;BME280;5668;52.012;8.724;2023-06-22T10:15:39;100299.31;;;26.11;80.41
11223;BME280;5668;52.012;8.724;2023-06-22T10:18:06;100301.75;;;26.19;80.06
11223;BME280;5668;52.012;8.724;2023-06-22T10:20:35;100298.50;;;26.31;79.50
11223;BME280;5668;52.012;8.724;2023-06-22T10:23:02;100297.63;;;26.43;78.84
11223;BME280;5668;52.012;8.724;2023-06-22T10:25:29;100287.91;;;26.55;78.91
11223;BME280;5668;52.012;8.724;2023-06-22T10:27:56;100294.44;;;26.66;77.88
11223;BME280;5668;52.012;8.724;2023-06-22T10:30:24;100284.94;;;26.77;77.65
11223;BME280;5668;52.012;8.724;2023-06-22T10:32:51;100295.16;;;26.86;76.45
11223;BME280;5668;52.012;8.724;2023-06-22T10:35:18;100298.84;;;26.92;75.93
11223;BME280;5668;52.012;8.724;2023-06-22T10:37:48;100299.63;;;26.99;74.67
11223;BME280;5668;52.012;8.724;2023-06-22T10:40:17;100300.44;;;27.06;73.40
11223;BME280;5668;52.012;8.724;2023-06-22T10:42:45;100297.47;;;27.14;72.71
11223;BME280;5668;52.012;8.724;2023-06-22T10:45:13;100289.81;;;27.24;72.21
11223;BME280;5668;52.012;8.724;2023-06-22T10:47:40;100277.03;;;27.33;71.95
11223;BME280;5668;52.012;8.724;2023-06-22T10:50:10;100274.69;;;27.43;70.53
11223;BME280;5668;52.012;8.724;2023-06-22T10:52:38;100261.09;;;27.51;70.48
11223;BME280;5668;52.012;8.724;2023-06-22T10:55:08;100254.81;;;27.64;70.88
11223;BME280;5668;52.012;8.724;2023-06-22T10:57:36;100252.69;;;27.72;69.41
11223;BME280;5668;52.012;8.724;2023-06-22T11:00:06;100244.16;;;27.82;68.57
11223;BME280;5668;52.012;8.724;2023-06-22T11:02:34;100240.16;;;27.91;68.17
11223;BME280;5668;52.012;8.724;2023-06-22T11:05:01;100233.09;;;27.97;68.31
11223;BME280;5668;52.012;8.724;2023-06-22T11:07:30;100230.81;;;28.00;67.46
11223;BME280;5668;52.012;8.724;2023-06-22T11:09:57;100233.06;;;28.03;66.81
11223;BME280;5668;52.012;8.724;2023-06-22T11:12:25;100229.78;;;28.01;66.26
11223;BME280;5668;52.012;8.724;2023-06-22T11:14:53;100221.28;;;28.04;66.63
11223;BME280;5668;52.012;8.724;2023-06-22T11:17:20;100228.53;;;28.04;65.44
11223;BME280;5668;52.012;8.724;2023-06-22T11:19:47;100224.34;;;28.08;65.27
11223;BME280;5668;52.012;8.724;2023-06-22T11:22:14;100212.75;;;28.14;65.84
11223;BME280;5668;52.012;8.724;2023-06-22T11:24:41;100211.53;;;28.17;66.69
11223;BME280;5668;52.012;8.724;2023-06-22T11:27:09;100202.25;;;28.19;66.63
11223;BME280;5668;52.012;8.724;2023-06-22T11:29:37;100200.63;;;28.18;66.32
11223;BME280;5668;52.012;8.724;2023-06-22T11:32:06;100193.84;;;28.16;65.06
11223;BME280;5668;52.012;8.724;2023-06-22T11:34:34;100191.31;;;28.21;65.92
11223;BME280;5668;52.012;8.724;2023-06-22T11:37:01;100185.69;;;28.10;62.83
11223;BME280;5668;52.012;8.724;2023-06-22T11:39:28;100190.56;;;28.13;64.19
11223;BME280;5668;52.012;8.724;2023-06-22T11:41:55;100183.56;;;28.12;64.89
11223;BME280;5668;52.012;8.724;2023-06-22T11:44:23;100183.56;;;28.19;64.76
11223;BME280;5668;52.012;8.724;2023-06-22T11:46:51;100184.28;;;28.26;66.10
11223;BME280;5668;52.012;8.724;2023-06-22T11:49:18;100179.75;;;28.27;64.79
11223;BME280;5668;52.012;8.724;2023-06-22T11:51:45;100165.78;;;28.25;64.49
11223;BME280;5668;52.012;8.724;2023-06-22T11:54:13;100161.47;;;28.24;64.07
11223;BME280;5668;52.012;8.724;2023-06-22T11:56:40;100154.50;;;28.23;63.47
11223;BME280;5668;52.012;8.724;2023-06-22T11:59:07;100156.13;;;28.24;64.79
11223;BME280;5668;52.012;8.724;2023-06-22T12:01:34;100152.41;;;28.25;64.79
11223;BME280;5668;52.012;8.724;2023-06-22T12:04:03;100147.66;;;28.27;66.42
11223;BME280;5668;52.012;8.724;2023-06-22T12:06:31;100146.84;;;28.26;66.85
11223;BME280;5668;52.012;8.724;2023-06-22T12:08:59;100153.47;;;28.24;66.16
11223;BME280;5668;52.012;8.724;2023-06-22T12:11:26;100144.50;;;28.18;64.87
11223;BME280;5668;52.012;8.724;2023-06-22T12:13:53;100143.25;;;28.14;64.81
11223;BME280;5668;52.012;8.724;2023-06-22T12:16:20;100139.63;;;28.08;63.50
11223;BME280;5668;52.012;8.724;2023-06-22T12:18:48;100146.03;;;28.07;64.21
11223;BME280;5668;52.012;8.724;2023-06-22T12:21:17;100134.72;;;28.05;64.28
11223;BME280;5668;52.012;8.724;2023-06-22T12:23:44;100146.25;;;28.06;64.07
11223;BME280;5668;52.012;8.724;2023-06-22T12:26:15;100139.25;;;28.05;64.65
11223;BME280;5668;52.012;8.724;2023-06-22T12:28:42;100144.59;;;28.05;64.79
11223;BME280;5668;52.012;8.724;2023-06-22T12:31:10;100150.19;;;28.03;64.46
11223;BME280;5668;52.012;8.724;2023-06-22T12:33:37;100160.88;;;28.03;64.63
11223;BME280;5668;52.012;8.724;2023-06-22T12:36:04;100168.53;;;28.00;64.50
11223;BME280;5668;52.012;8.724;2023-06-22T12:38:33;100167.94;;;27.98;65.13
11223;BME280;5668;52.012;8.724;2023-06-22T12:41:00;100185.91;;;27.91;63.87
11223;BME280;5668;52.012;8.724;2023-06-22T12:43:28;100189.38;;;27.91;64.70
11223;BME280;5668;52.012;8.724;2023-06-22T12:45:55;100185.91;;;27.91;64.59
11223;BME280;5668;52.012;8.724;2023-06-22T12:48:23;100183.44;;;27.89;65.71
11223;BME280;5668;52.012;8.724;2023-06-22T12:50:51;100175.28;;;27.84;66.23
11223;BME280;5668;52.012;8.724;2023-06-22T12:53:18;100175.16;;;27.79;66.16
11223;BME280;5668;52.012;8.724;2023-06-22T12:55:46;100181.53;;;27.78;66.60
11223;BME280;5668;52.012;8.724;2023-06-22T12:58:14;100165.94;;;27.75;66.39
11223;BME280;5668;52.012;8.724;2023-06-22T13:00:41;100178.72;;;27.73;67.20
11223;BME280;5668;52.012;8.724;2023-06-22T13:03:08;100167.22;;;27.72;67.73
11223;BME280;5668;52.012;8.724;2023-06-22T13:05:35;100152.44;;;27.70;68.40
11223;BME280;5668;52.012;8.724;2023-06-22T13:08:02;100139.75;;;27.65;69.31